Bowie, Colorado
Current Conditions -  °F | °C
As of 4:55 AM on Thursday 23 Oct 2014 (Local Time) from KAJZ Reporting Station
Clear Clear  
Wind Chill: 41°   Ceiling: Unl
Heat Index: 46°   Visibility: 10mi
Dew Point: 35°   Wind: 8mph
Humidity: 67%   Direction: 60°ENE
Pressure: 30.25"   Gusts: NA
Location:  38.9841°N, 107.597°W
Report Text: KAJZ 231055Z AUTO 06007KT 10SM CLR 08/02 A3025 RMK AO2 T00750017
Loading
Personal Weather Stations






























Interactive Weather Map
Tropical Storm Tracking
New forecast layout! Learn more

10-Day Weather Forecast

Advertisements
Track Severe Weather on mobile